Mora RC

2021-06-24 17:30:00

  • imperial
Date Time Air Temperature Relative Humidity Dewpoint Windchill Heat Index Wind Speed Wind Dir. Rain Solar Radiation Soil Temperature
2m 2m 3m 3m 10cm
US/Mountain F % F F F MPH deg in MJ/m^2 F
max avg avg
2021-06-23 17:40:00 83.3 13.2 27.7 83.3 83.3 3.3 9.2 6.2 291.3 274.5 0.00 0.0946077 78.6
2021-06-23 17:45:00 83.9 12.0 25.8 83.9 83.9 6.2 8.5 5.3 292.0 243.8 0.00 0.1039201 78.5
2021-06-23 17:50:00 84.4 13.1 28.4 84.4 84.4 2.8 11.3 4.9 209.2 230.2 0.00 0.1052325 78.5
2021-06-23 17:55:00 84.3 11.6 25.3 84.3 84.3 5.6 12.4 6.4 256.4 230.9 0.00 0.0910758 78.4
2021-06-23 18:00:00 83.5 13.1 27.6 83.5 83.5 5.8 11.3 6.4 272.5 256.2 0.00 0.0723305 78.4
2021-06-23 18:05:00 83.3 11.4 24.2 83.3 83.3 5.8 8.7 5.1 208.4 231.0 0.00 0.0587319 78.4
2021-06-23 18:10:00 83.0 11.3 23.6 83.0 83.0 9.4 9.4 4.5 265.7 250.4 0.00 0.0499328 78.4
2021-06-23 18:15:00 82.6 12.7 26.3 82.6 82.6 3.0 9.6 5.4 329.3 257.0 0.00 0.0434707 78.3
2021-06-23 18:20:00 82.2 11.9 24.3 82.2 82.2 4.7 9.2 5.9 251.0 260.9 0.00 0.0368913 78.4
2021-06-23 18:25:00 82.3 13.2 26.9 82.3 82.3 4.0 7.4 4.1 279.9 272.3 0.00 0.0542995 78.3
2021-06-23 18:30:00 83.1 12.9 27.0 83.1 83.1 8.0 8.0 4.2 294.8 291.8 0.00 0.0879038 78.3
2021-06-23 18:35:00 82.7 13.7 28.1 82.7 82.7 2.2 9.0 5.8 290.5 277.9 0.00 0.0445765 78.3
2021-06-23 18:40:00 82.3 12.7 26.0 82.3 82.3 4.2 8.1 4.4 298.2 272.5 0.00 0.0318239 78.3
2021-06-23 18:45:00 81.8 13.5 27.0 81.8 81.8 2.6 5.6 3.4 283.3 276.1 0.00 0.0184909 78.2
2021-06-23 18:50:00 81.0 12.7 25.0 81.0 81.0 6.0 10.3 5.3 227.6 270.0 0.00 0.0134865 78.2
2021-06-23 18:55:00 80.7 14.0 27.1 80.7 80.7 4.0 7.6 3.5 197.2 227.1 0.00 0.0130889 78.2
2021-06-23 19:00:00 80.5 13.2 25.4 80.5 80.5 3.7 6.2 4.3 246.0 248.0 0.00 0.0147438 78.2
2021-06-23 19:05:00 80.7 13.0 25.3 80.7 80.7 4.0 7.2 3.9 212.7 228.7 0.00 0.0133438 78.1
2021-06-23 19:10:00 80.5 14.3 27.4 80.5 80.5 3.8 4.9 3.1 268.2 247.5 0.00 0.0122692 78.1
2021-06-23 19:15:00 80.3 13.8 26.4 80.3 80.3 2.6 6.5 3.7 286.0 260.4 0.00 0.0106167 78.0
2021-06-23 19:20:00 79.6 14.2 26.6 79.6 79.6 1.9 5.1 3.3 231.6 256.1 0.00 0.0096426 77.9
2021-06-23 19:25:00 79.6 14.5 27.0 79.6 79.6 1.5 5.1 2.5 271.6 247.0 0.00 0.0085680 77.9
2021-06-23 19:30:00 79.6 13.8 25.9 79.6 79.6 4.9 6.7 4.0 262.2 261.9 0.00 0.0079473 77.8
2021-06-23 19:35:00 80.0 13.8 26.2 80.0 80.0 8.5 8.8 5.2 275.0 261.0 0.00 0.0067255 77.7
2021-06-23 19:40:00 80.1 13.8 26.3 80.1 80.1 4.7 8.1 4.7 282.1 265.7 0.00 0.0063747 77.6
2021-06-23 19:45:00 79.7 14.0 26.4 79.7 79.7 9.4 11.3 5.2 262.3 273.9 0.00 0.0062035 77.5
2021-06-23 19:50:00 80.2 13.1 25.1 80.2 80.2 5.8 19.8 7.9 275.9 275.0 0.00 0.0068907 77.5
2021-06-23 19:55:00 80.3 13.4 25.6 80.3 80.3 3.1 9.2 4.7 286.9 262.8 0.00 0.0060000 77.4
2021-06-23 20:00:00 79.9 13.8 26.2 79.9 79.9 0.0 6.9 3.6 286.3 255.3 0.00 0.0034489 77.3
2021-06-23 20:05:00 79.6 14.2 26.5 79.6 79.6 3.5 8.1 4.0 281.8 274.7 0.00 0.0020932 77.2
2021-06-23 20:10:00 79.8 13.8 25.9 79.8 79.8 2.6 8.7 5.0 270.6 247.1 0.00 0.0017565 77.1
2021-06-23 20:15:00 79.4 14.0 26.1 79.4 79.4 3.3 7.6 4.3 261.2 237.0 0.00 0.0006336 77.0
2021-06-23 20:20:00 79.1 14.4 26.6 79.1 79.1 4.7 6.3 3.3 260.9 235.0 0.00 0.0000426 76.9
2021-06-23 20:25:00 79.1 14.2 26.2 79.1 79.1 2.8 10.1 4.5 241.1 262.8 0.00 0.0000000 76.8
2021-06-23 20:30:00 78.6 14.6 26.4 78.6 78.6 2.2 4.7 3.2 289.2 259.1 0.00 0.0000000 76.7
2021-06-23 20:35:00 78.5 14.9 26.8 78.5 78.5 4.2 6.0 4.1 284.3 272.1 0.00 0.0000000 76.6
2021-06-23 20:40:00 77.6 16.0 27.8 77.6 77.6 1.2 4.7 3.1 185.7 276.0 0.00 0.0000000 76.5
2021-06-23 20:45:00 76.9 16.3 27.7 76.9 76.9 2.6 6.3 3.3 251.5 259.5 0.00 0.0000000 76.4
2021-06-23 20:50:00 75.8 17.0 27.8 75.8 75.8 2.4 3.8 2.5 276.1 262.7 0.00 0.0000000 76.4
2021-06-23 20:55:00 75.0 17.7 28.2 75.0 75.0 5.3 6.3 4.1 258.1 272.1 0.00 0.0000000 76.2
2021-06-23 21:00:00 76.0 17.2 28.3 76.0 76.0 3.0 6.9 4.2 134.6 253.6 0.00 0.0000000 76.2
2021-06-23 21:05:00 75.1 18.6 29.5 75.1 75.1 1.5 4.7 2.9 290.4 241.5 0.00 0.0000000 76.1
2021-06-23 21:10:00 74.0 19.1 29.3 74.0 74.0 2.1 5.8 3.3 239.6 253.3 0.00 0.0000000 76.0
2021-06-23 21:15:00 73.4 19.7 29.6 73.4 73.4 4.0 5.5 3.5 291.0 290.2 0.00 0.0000000 75.9
2021-06-23 21:20:00 72.6 20.4 29.7 72.6 72.6 3.8 4.6 2.6 266.1 270.6 0.00 0.0000000 75.8
2021-06-23 21:25:00 72.0 20.9 29.8 72.0 72.0 3.0 5.8 2.8 264.3 287.5 0.00 0.0000000 75.7
2021-06-23 21:30:00 71.7 21.2 29.9 71.7 71.7 1.5 5.3 2.7 264.8 270.0 0.00 0.0000000 75.6
2021-06-23 21:35:00 71.4 22.3 30.9 71.4 71.4 2.8 5.1 3.4 296.0 262.1 0.00 0.0000000 75.5
2021-06-23 21:40:00 71.5 22.2 30.9 71.5 71.5 1.7 5.5 3.2 263.0 288.3 0.00 0.0000000 75.3
2021-06-23 21:45:00 68.6 24.7 31.0 68.6 68.6 3.0 5.5 3.7 260.5 221.4 0.00 0.0000000 75.3
2021-06-23 21:50:00 67.2 26.8 31.9 67.2 67.2 3.1 3.8 2.6 269.4 263.0 0.00 0.0000000 75.2
2021-06-23 21:55:00 66.0 27.1 31.2 66.0 66.0 3.3 3.7 2.7 254.6 239.6 0.00 0.0000000 75.1
2021-06-23 22:00:00 66.2 27.0 31.3 66.2 66.2 3.1 4.0 2.8 269.0 262.6 0.00 0.0000000 75.0
2021-06-23 22:05:00 65.8 28.5 32.3 65.8 65.8 1.5 3.7 2.0 237.7 250.1 0.00 0.0000000 74.8
2021-06-23 22:10:00 64.8 29.3 32.0 64.8 64.8 3.7 4.6 2.8 287.4 267.6 0.00 0.0000000 74.7
2021-06-23 22:15:00 66.0 28.4 32.3 66.0 66.0 3.0 5.3 2.8 284.1 302.8 0.00 0.0000000 74.6
2021-06-23 22:20:00 70.2 25.6 33.3 70.2 70.2 3.8 8.5 4.9 312.1 312.0 0.00 0.0000031 74.5
2021-06-23 22:25:00 72.1 24.4 33.7 72.1 72.1 5.8 10.8 6.0 276.6 310.1 0.00 0.0000000 74.4
2021-06-23 22:30:00 71.5 25.5 34.3 71.5 71.5 3.7 7.2 5.0 304.6 278.5 0.00 0.0000000 74.3
2021-06-23 22:35:00 72.5 24.7 34.4 72.5 72.5 5.8 9.6 5.6 310.4 311.7 0.00 0.0000000 74.2
2021-06-23 22:40:00 72.5 25.0 34.6 72.5 72.5 4.7 9.0 6.5 295.1 308.3 0.00 0.0000000 74.1
2021-06-23 22:45:00 72.5 25.5 35.2 72.5 72.5 5.8 11.3 6.7 297.0 291.3 0.00 0.0000000 74.0
2021-06-23 22:50:00 72.7 25.0 34.8 72.7 72.7 5.5 11.9 7.5 308.5 301.5 0.00 0.0000000 73.9
2021-06-23 22:55:00 72.6 25.2 34.9 72.6 72.6 3.7 10.1 6.3 309.7 305.4 0.00 0.0000000 73.8
2021-06-23 23:00:00 72.4 25.6 35.2 72.4 72.4 9.2 14.9 7.7 323.9 306.7 0.00 0.0000000 73.7
2021-06-23 23:05:00 72.1 26.3 35.6 72.1 72.1 4.6 10.6 6.8 344.2 302.2 0.00 0.0000000 73.6
2021-06-23 23:10:00 71.3 26.9 35.5 71.3 71.3 7.4 8.3 6.4 328.9 312.2 0.00 0.0000000 73.5
2021-06-23 23:15:00 71.2 27.7 36.2 71.2 71.2 7.2 12.1 7.1 314.6 309.4 0.00 0.0000000 73.4
2021-06-23 23:20:00 70.8 27.8 35.9 70.8 70.8 5.8 11.0 5.9 314.4 310.9 0.00 0.0000000 73.3
2021-06-23 23:25:00 70.9 27.7 35.9 70.9 70.9 8.8 11.3 7.4 323.1 306.6 0.00 0.0000000 73.3
2021-06-23 23:30:00 71.5 27.0 35.8 71.5 71.5 10.6 13.3 7.8 307.7 307.9 0.00 0.0000000 73.2
2021-06-23 23:35:00 71.6 27.5 36.2 71.6 71.6 7.2 12.6 6.8 296.6 314.0 0.00 0.0000000 73.1
2021-06-23 23:40:00 71.5 27.1 35.9 71.5 71.5 8.1 15.5 6.9 302.6 300.1 0.00 0.0000000 73.1
2021-06-23 23:45:00 72.0 26.9 36.1 72.0 72.0 6.2 12.6 7.8 309.5 295.4 0.00 0.0000000 73.0
2021-06-23 23:50:00 72.0 26.7 35.9 72.0 72.0 9.4 14.6 9.1 298.7 307.6 0.00 0.0000000 73.0
2021-06-23 23:55:00 72.1 26.4 35.7 72.1 72.1 9.7 13.9 8.6 270.9 318.6 0.00 0.0000000 72.9
2021-06-24 00:00:00 72.2 26.7 36.1 72.2 72.2 6.7 11.3 6.4 298.0 314.3 0.00 0.0000000 72.8
2021-06-24 00:05:00 72.0 26.5 35.7 72.0 72.0 5.1 6.3 3.0 314.8 295.7 0.00 0.0000000 72.8
2021-06-24 00:10:00 71.9 26.9 36.0 71.9 71.9 4.2 9.4 4.4 293.7 315.4 0.00 0.0000000 72.7
2021-06-24 00:15:00 71.7 27.4 36.3 71.7 71.7 4.9 13.7 6.8 0.5 322.3 0.00 0.0000000 72.7
2021-06-24 00:20:00 70.7 28.9 36.8 70.7 70.7 2.4 5.1 2.5 122.3 183.1 0.00 0.0000000 72.6
2021-06-24 00:25:00 69.6 30.2 37.0 69.6 69.6 1.3 3.3 2.0 224.2 188.4 0.00 0.0000000 72.6
2021-06-24 00:30:00 68.8 31.2 37.1 68.8 68.8 2.2 2.8 2.0 148.3 4.5 0.00 0.0000000 72.5
2021-06-24 00:35:00 67.7 32.2 36.9 67.7 67.7 1.3 3.5 1.9 241.6 205.2 0.00 0.0000000 72.5
2021-06-24 00:40:00 67.8 32.2 37.0 67.8 67.8 0.8 3.7 2.6 296.9 185.9 0.00 0.0000000 72.4
2021-06-24 00:45:00 67.0 33.0 37.0 67.0 67.0 0.0 3.0 1.2 176.5 64.2 0.00 0.0000000 72.4
2021-06-24 00:50:00 66.4 33.5 36.8 66.4 66.4 0.0 2.1 0.8 73.7 293.6 0.00 0.0000000 72.3
2021-06-24 00:55:00 66.7 33.4 37.0 66.7 66.7 0.0 1.2 0.4 74.2 208.1 0.00 0.0000000 72.3
2021-06-24 01:00:00 65.5 35.6 37.6 65.5 65.5 3.1 5.3 3.5 218.6 190.2 0.00 0.0000000 72.2
2021-06-24 01:05:00 63.4 39.2 38.1 63.4 63.4 2.4 3.0 1.8 324.5 258.5 0.00 0.0000000 72.2
2021-06-24 01:10:00 63.4 37.8 37.2 63.4 63.4 2.8 3.1 2.0 63.0 328.4 0.00 0.0000000 72.1
2021-06-24 01:15:00 64.4 36.7 37.4 64.4 64.4 2.6 4.6 2.2 175.2 212.7 0.00 0.0000034 72.1
2021-06-24 01:20:00 64.2 37.2 37.6 64.2 64.2 2.1 5.1 3.2 275.6 180.4 0.00 0.0000000 72.0
2021-06-24 01:25:00 66.1 34.7 37.4 66.1 66.1 3.8 8.0 3.2 272.3 266.5 0.00 0.0000000 71.9
2021-06-24 01:30:00 67.1 33.6 37.4 67.1 67.1 4.0 8.3 4.6 306.4 281.8 0.00 0.0000000 71.9
2021-06-24 01:35:00 67.0 32.9 36.8 67.0 67.0 9.9 10.3 3.9 340.2 241.9 0.00 0.0000000 71.8
2021-06-24 01:40:00 68.5 31.8 37.3 68.5 68.5 10.8 14.4 8.2 323.4 312.9 0.00 0.0000000 71.7
2021-06-24 01:45:00 68.7 31.9 37.6 68.7 68.7 11.5 16.9 10.5 308.9 302.4 0.00 0.0000000 71.7
2021-06-24 01:50:00 68.2 33.2 38.1 68.2 68.2 11.3 20.6 12.4 320.0 313.7 0.00 0.0000000 71.6
2021-06-24 01:55:00 68.4 33.2 38.3 68.4 68.4 8.8 17.1 11.5 343.3 315.8 0.00 0.0000000 71.5
2021-06-24 02:00:00 67.3 34.6 38.4 67.3 67.3 9.2 16.0 10.4 310.6 308.8 0.00 0.0000000 71.4
2021-06-24 02:05:00 67.3 34.7 38.5 67.3 67.3 13.1 18.5 12.0 343.1 324.0 0.00 0.0000000 71.4
2021-06-24 02:10:00 67.1 35.4 38.9 67.1 67.1 14.4 15.3 9.4 325.5 316.3 0.00 0.0000000 71.3
2021-06-24 02:15:00 67.1 35.7 39.0 67.1 67.1 12.2 24.6 12.5 295.7 322.2 0.00 0.0000000 71.3
2021-06-24 02:20:00 66.9 36.1 39.2 66.9 66.9 18.5 26.0 15.5 1.7 317.8 0.00 0.0000000 71.2
2021-06-24 02:25:00 66.8 36.6 39.4 66.8 66.8 12.2 20.6 13.8 319.5 320.1 0.00 0.0000000 71.2
2021-06-24 02:30:00 66.6 36.9 39.5 66.6 66.6 11.5 19.8 13.8 324.7 321.1 0.00 0.0000000 71.1
2021-06-24 02:35:00 66.2 37.9 39.7 66.2 66.2 10.3 19.2 13.7 314.8 320.9 0.00 0.0000000 71.1
2021-06-24 02:40:00 66.2 37.9 39.7 66.2 66.2 13.7 17.1 13.4 287.4 328.0 0.00 0.0000000 71.0
2021-06-24 02:45:00 66.0 38.4 39.9 66.0 66.0 12.6 24.2 14.3 303.2 333.6 0.00 0.0000000 71.0
2021-06-24 02:50:00 65.8 39.0 40.1 65.8 65.8 4.7 14.9 10.1 316.2 313.8 0.00 0.0000000 70.9
2021-06-24 02:55:00 65.5 40.3 40.7 65.5 65.5 9.2 21.0 12.4 312.5 318.7 0.00 0.0000000 70.9
2021-06-24 03:00:00 65.2 40.9 40.9 65.2 65.2 16.2 20.6 12.3 4.9 318.8 0.00 0.0000000 70.9
2021-06-24 03:05:00 64.9 41.6 41.0 64.9 64.9 12.6 26.0 15.3 325.6 320.6 0.00 0.0000000 70.9
2021-06-24 03:10:00 64.7 42.5 41.3 64.7 64.7 16.0 22.8 14.7 344.1 314.5 0.00 0.0000000 70.8
2021-06-24 03:15:00 64.2 43.0 41.3 64.2 64.2 16.5 26.9 17.4 274.6 319.2 0.00 0.0000000 70.8
2021-06-24 03:20:00 64.4 42.1 40.9 64.4 64.4 12.6 20.6 14.0 346.3 317.7 0.00 0.0000000 70.8
2021-06-24 03:25:00 64.6 41.7 40.8 64.6 64.6 16.4 22.4 14.7 329.4 319.6 0.00 0.0000000 70.7
2021-06-24 03:30:00 64.7 41.3 40.6 64.7 64.7 20.6 25.6 16.0 347.4 315.5 0.00 0.0000000 70.7
2021-06-24 03:35:00 64.6 42.0 41.0 64.6 64.6 9.4 23.2 15.7 334.4 310.7 0.00 0.0000000 70.7
2021-06-24 03:40:00 64.4 42.5 41.1 64.4 64.4 14.2 24.6 14.1 297.7 322.4 0.00 0.0000000 70.7
2021-06-24 03:45:00 64.2 42.7 41.1 64.2 64.2 14.9 23.9 13.2 347.0 317.7 0.00 0.0000000 70.6
2021-06-24 03:50:00 64.2 42.7 41.1 64.2 64.2 8.3 18.7 12.7 318.1 325.5 0.00 0.0000000 70.6
2021-06-24 03:55:00 64.1 43.0 41.1 64.1 64.1 10.5 21.4 13.9 311.5 318.0 0.00 0.0000000 70.6
2021-06-24 04:00:00 63.9 43.4 41.2 63.9 63.9 11.5 19.4 14.5 307.9 315.2 0.00 0.0000000 70.5
2021-06-24 04:05:00 63.6 43.9 41.2 63.6 63.6 9.4 17.1 12.0 335.9 320.6 0.00 0.0000000 70.5
2021-06-24 04:10:00 63.2 45.0 41.5 63.2 63.2 3.1 18.0 9.2 9.1 322.8 0.00 0.0000000 70.5
2021-06-24 04:15:00 63.1 44.9 41.4 63.1 63.1 7.4 14.7 9.4 323.8 316.1 0.00 0.0000000 70.5
2021-06-24 04:20:00 62.9 45.2 41.4 62.9 62.9 9.4 15.1 7.8 342.3 319.8 0.00 0.0000000 70.4
2021-06-24 04:25:00 63.1 44.8 41.3 63.1 63.1 5.1 14.6 7.7 273.8 322.9 0.00 0.0000000 70.4
2021-06-24 04:30:00 63.1 44.5 41.2 63.1 63.1 9.9 13.1 8.5 298.2 314.3 0.00 0.0000000 70.4
2021-06-24 04:35:00 63.0 44.9 41.3 63.0 63.0 3.3 9.6 5.5 280.6 300.0 0.00 0.0000000 70.3
2021-06-24 04:40:00 62.8 45.2 41.3 62.8 62.8 4.4 7.1 4.2 261.4 307.9 0.00 0.0000000 70.3
2021-06-24 04:45:00 62.7 45.4 41.2 62.7 62.7 4.2 7.8 5.1 293.5 278.7 0.00 0.0000000 70.3
2021-06-24 04:50:00 61.4 47.9 41.5 61.4 61.4 3.5 5.3 3.3 265.8 261.8 0.00 0.0000000 70.2
2021-06-24 04:55:00 61.4 47.8 41.4 61.4 61.4 3.3 6.5 3.5 227.2 265.4 0.00 0.0000000 70.2
2021-06-24 05:00:00 60.6 48.5 41.1 60.6 60.6 3.5 4.6 2.6 295.3 268.7 0.00 0.0000000 70.1
2021-06-24 05:05:00 59.8 51.3 41.8 59.8 59.8 1.7 4.7 3.0 217.8 226.2 0.00 0.0000000 70.1
2021-06-24 05:10:00 59.0 52.7 41.7 59.0 59.0 3.0 3.3 1.9 298.6 257.8 0.00 0.0000000 70.0
2021-06-24 05:15:00 57.5 54.8 41.4 57.5 57.5 3.7 5.1 3.2 303.3 290.0 0.00 0.0000000 70.0
2021-06-24 05:20:00 57.5 54.1 41.0 57.5 57.5 2.2 3.7 3.0 300.0 284.7 0.00 0.0000000 69.9
2021-06-24 05:25:00 57.1 54.8 41.0 57.1 57.1 3.3 3.3 2.3 241.6 256.1 0.00 0.0000000 69.9
2021-06-24 05:30:00 58.4 51.4 40.5 58.4 58.4 3.0 4.2 2.2 198.5 274.4 0.00 0.0000000 69.8
2021-06-24 05:35:00 58.9 50.9 40.8 58.9 58.9 3.8 4.7 3.7 240.6 240.8 0.00 0.0000000 69.8
2021-06-24 05:40:00 59.7 49.4 40.7 59.7 59.7 4.9 4.9 3.3 235.0 236.9 0.00 0.0000000 69.7
2021-06-24 05:45:00 58.9 51.1 40.9 58.9 58.9 3.5 4.0 2.7 210.4 232.1 0.00 0.0000000 69.7
2021-06-24 05:50:00 58.8 51.0 40.7 58.8 58.8 3.0 5.5 3.0 351.0 294.7 0.00 0.0000000 69.6
2021-06-24 05:55:00 59.6 49.6 40.7 59.6 59.6 3.5 3.8 2.7 253.8 275.6 0.00 0.0003671 69.5
2021-06-24 06:00:00 59.4 49.9 40.7 59.4 59.4 3.3 3.5 2.7 289.2 250.7 0.00 0.0022379 69.5
2021-06-24 06:05:00 59.6 50.0 41.0 59.6 59.6 1.9 3.5 2.5 240.0 252.1 0.00 0.0049082 69.4
2021-06-24 06:10:00 60.2 48.2 40.5 60.2 60.2 3.0 4.0 2.9 261.5 275.1 0.00 0.0079293 69.4
2021-06-24 06:15:00 60.4 48.5 40.9 60.4 60.4 3.8 5.5 3.9 265.0 254.2 0.00 0.0086445 69.3
2021-06-24 06:20:00 60.8 48.0 41.0 60.8 60.8 5.1 5.1 4.0 266.2 272.9 0.00 0.0095501 69.3
2021-06-24 06:25:00 61.3 46.8 40.8 61.3 61.3 4.4 6.0 4.2 307.9 279.5 0.00 0.0127960 69.2
2021-06-24 06:30:00 63.0 42.8 40.0 63.0 63.0 6.3 7.1 5.2 294.8 298.2 0.00 0.0161648 69.2
2021-06-24 06:35:00 63.3 43.4 40.7 63.3 63.3 5.1 7.4 5.3 283.3 309.6 0.00 0.0179715 69.1
2021-06-24 06:40:00 63.4 44.0 41.1 63.4 63.4 4.7 7.1 4.2 320.9 297.2 0.00 0.0178333 69.1
2021-06-24 06:45:00 64.7 40.6 40.2 64.7 64.7 6.0 8.3 6.1 345.1 320.7 0.00 0.0199143 69.0
2021-06-24 06:50:00 65.2 39.5 39.9 65.2 65.2 6.0 10.3 7.4 284.1 328.1 0.00 0.0217997 69.0
2021-06-24 06:55:00 65.4 39.5 40.2 65.4 65.4 7.6 10.3 6.9 321.3 321.2 0.00 0.0260563 69.0
2021-06-24 07:00:00 65.7 38.3 39.6 65.7 65.7 8.1 14.0 9.9 294.9 325.4 0.00 0.0313983 68.9
2021-06-24 07:05:00 65.6 38.4 39.6 65.6 65.6 9.6 11.9 8.4 333.5 322.0 0.00 0.0358772 68.9
2021-06-24 07:10:00 65.6 39.0 40.0 65.6 65.6 4.6 11.9 7.1 313.6 322.0 0.00 0.0368602 68.9
2021-06-24 07:15:00 65.6 39.8 40.5 65.6 65.6 4.2 9.0 6.2 321.7 321.3 0.00 0.0480006 68.9
2021-06-24 07:20:00 66.0 39.0 40.3 66.0 66.0 4.9 6.2 4.2 318.6 321.7 0.00 0.0694404 68.9
2021-06-24 07:25:00 66.5 38.0 40.1 66.5 66.5 5.5 8.5 5.8 343.1 320.9 0.00 0.0695750 68.9
2021-06-24 07:30:00 66.3 38.8 40.5 66.3 66.3 3.7 8.0 5.5 322.5 325.0 0.00 0.0474284 68.9
2021-06-24 07:35:00 66.2 39.2 40.6 66.2 66.2 2.8 7.1 4.0 334.3 328.0 0.00 0.0559496 68.9
2021-06-24 07:40:00 67.0 37.7 40.3 67.0 67.0 0.8 3.3 1.3 7.8 351.1 0.00 0.0613633 68.9
2021-06-24 07:45:00 67.7 36.4 40.1 67.7 67.7 1.5 1.9 0.4 137.2 104.6 0.00 0.0550857 68.9
2021-06-24 07:50:00 67.7 37.1 40.5 67.7 67.7 1.3 3.7 2.3 132.0 133.6 0.00 0.0598841 68.9
2021-06-24 07:55:00 68.1 40.0 42.9 68.1 68.1 0.0 1.7 0.4 49.6 140.5 0.00 0.0663291 69.0
2021-06-24 08:00:00 68.8 37.2 41.6 68.8 68.8 1.5 2.1 1.3 294.6 260.5 0.00 0.1052273 69.0
2021-06-24 08:05:00 68.8 35.2 40.2 68.8 68.8 2.8 4.6 2.4 181.3 208.7 0.00 0.0548468 69.0
2021-06-24 08:10:00 68.5 35.6 40.3 68.5 68.5 5.1 6.9 4.2 165.4 199.5 0.00 0.0450450 69.1
2021-06-24 08:15:00 68.1 35.2 39.6 68.1 68.1 2.6 5.3 3.6 195.3 199.0 0.00 0.0442672 69.1
2021-06-24 08:20:00 68.2 39.3 42.5 68.2 68.2 2.6 2.8 1.7 292.2 261.3 0.00 0.0518457 69.2
2021-06-24 08:25:00 68.2 35.6 39.9 68.2 68.2 2.2 4.2 2.3 230.3 238.9 0.00 0.0608716 69.3
2021-06-24 08:30:00 68.6 37.2 41.5 68.6 68.6 3.7 4.2 2.2 316.7 266.3 0.00 0.0642587 69.3
2021-06-24 08:35:00 68.6 36.4 40.9 68.6 68.6 4.7 5.3 3.4 296.4 289.7 0.00 0.0710757 69.4
2021-06-24 08:40:00 69.0 32.9 38.6 69.0 69.0 8.7 10.3 4.6 305.7 324.8 0.00 0.0628936 69.4
2021-06-24 08:45:00 69.3 33.6 39.4 69.3 69.3 5.3 10.1 6.6 336.3 318.2 0.00 0.0648211 69.5
2021-06-24 08:50:00 70.2 31.4 38.5 70.2 70.2 13.1 13.1 7.9 342.6 318.7 0.00 0.1572942 69.5
2021-06-24 08:55:00 70.7 32.2 39.5 70.7 70.7 6.7 13.9 7.5 334.8 306.8 0.00 0.1338612 69.6
2021-06-24 09:00:00 71.5 30.8 39.1 71.5 71.5 6.2 8.8 6.3 337.5 314.0 0.00 0.1942250 69.7
2021-06-24 09:05:00 72.1 29.8 38.8 72.1 72.1 8.5 9.9 6.6 321.8 311.3 0.00 0.1827087 69.7
2021-06-24 09:10:00 72.8 28.3 38.0 72.8 72.8 13.0 13.0 7.8 327.4 316.5 0.00 0.1999036 69.8
2021-06-24 09:15:00 71.7 29.4 38.1 71.7 71.7 8.5 13.1 8.4 318.1 317.7 0.00 0.0921786 69.9
2021-06-24 09:20:00 72.2 29.8 38.9 72.2 72.2 4.9 9.2 5.4 322.6 315.4 0.00 0.1941862 70.0
2021-06-24 09:25:00 73.5 28.8 39.1 73.5 73.5 5.5 12.4 6.4 347.9 321.3 0.00 0.2678974 70.1
2021-06-24 09:30:00 73.9 27.8 38.5 73.9 73.9 9.2 11.9 7.0 319.2 311.1 0.00 0.2560574 70.2
2021-06-24 09:35:00 73.8 28.7 39.2 73.8 73.8 5.8 9.7 6.1 305.3 315.6 0.00 0.1903332 70.4
2021-06-24 09:40:00 72.9 29.6 39.3 72.9 72.9 4.4 11.3 7.4 331.0 305.0 0.00 0.1827740 70.5
2021-06-24 09:45:00 73.6 27.5 38.0 73.6 73.6 9.4 13.1 8.3 317.4 316.2 0.00 0.2439665 70.7
2021-06-24 09:50:00 73.3 28.2 38.4 73.3 73.3 7.8 11.3 8.5 320.8 312.1 0.00 0.2280306 70.9
2021-06-24 09:55:00 74.1 29.0 39.9 74.1 74.1 6.0 12.2 6.9 304.6 312.6 0.00 0.2334993 71.1
2021-06-24 10:00:00 74.3 29.2 40.2 74.3 74.3 4.2 11.5 7.4 336.0 304.7 0.00 0.2338560 71.3
2021-06-24 10:05:00 74.6 29.4 40.6 74.6 74.6 9.6 15.6 7.9 290.4 320.8 0.00 0.2592973 71.5
2021-06-24 10:10:00 74.2 28.0 39.0 74.2 74.2 5.1 13.3 8.1 292.0 295.9 0.00 0.2609622 71.7
2021-06-24 10:15:00 74.9 27.8 39.4 74.9 74.9 9.6 12.4 8.0 329.2 314.1 0.00 0.2782186 71.9
2021-06-24 10:20:00 74.4 29.2 40.2 74.4 74.4 6.0 10.8 7.7 310.4 315.8 0.00 0.1965264 72.2
2021-06-24 10:25:00 74.5 29.4 40.5 74.5 74.5 6.0 13.5 8.2 280.4 304.8 0.00 0.2487007 72.4
2021-06-24 10:30:00 75.2 27.1 39.1 75.2 75.2 8.3 9.9 6.8 298.4 315.1 0.00 0.2946457 72.7
2021-06-24 10:35:00 75.8 28.1 40.4 75.8 75.8 7.4 9.0 6.5 309.9 308.3 0.00 0.2483112 72.9
2021-06-24 10:40:00 75.7 26.6 38.9 75.7 75.7 7.4 11.5 7.7 326.1 317.1 0.00 0.2663551 73.2
2021-06-24 10:45:00 76.2 26.9 39.7 76.2 76.2 9.7 9.9 6.9 299.7 302.3 0.00 0.2633945 73.4
2021-06-24 10:50:00 74.8 27.4 39.0 74.8 74.8 4.9 10.5 6.7 326.0 311.2 0.00 0.1582935 73.7
2021-06-24 10:55:00 75.9 28.1 40.5 75.9 75.9 5.5 10.3 6.9 2.9 309.1 0.00 0.2815451 74.0
2021-06-24 11:00:00 76.4 27.7 40.6 76.4 76.4 7.4 9.0 5.9 294.1 313.5 0.00 0.2757591 74.2
2021-06-24 11:05:00 76.8 27.0 40.3 76.8 76.8 8.0 10.5 6.8 268.0 304.3 0.00 0.2757342 74.5
2021-06-24 11:10:00 76.6 25.2 38.3 76.6 76.6 8.3 10.5 6.4 293.4 305.9 0.00 0.2777379 74.8
2021-06-24 11:15:00 76.5 26.6 39.7 76.5 76.5 7.8 14.6 7.9 303.5 308.3 0.00 0.2829056 75.1
2021-06-24 11:20:00 76.8 25.6 39.0 76.8 76.8 8.0 11.5 7.5 303.4 316.5 0.00 0.2915743 75.3
2021-06-24 11:25:00 77.6 26.0 40.0 77.6 77.6 5.8 9.4 6.2 286.2 307.5 0.00 0.3077967 75.6
2021-06-24 11:30:00 78.4 26.4 41.1 78.4 78.4 7.1 8.0 5.4 254.6 307.0 0.00 0.3257402 75.9
2021-06-24 11:35:00 78.3 23.7 38.2 78.3 78.3 9.2 9.2 6.5 291.7 295.7 0.00 0.3229393 76.2
2021-06-24 11:40:00 79.3 23.6 39.0 79.3 79.3 2.4 9.4 4.5 349.4 269.7 0.00 0.3329903 76.5
2021-06-24 11:45:00 81.2 20.8 37.3 81.2 81.2 7.1 8.7 3.8 197.5 184.0 0.00 0.3344111 76.8
2021-06-24 11:50:00 81.2 20.2 36.6 81.2 81.2 1.7 8.3 4.6 26.2 131.4 0.00 0.3686313 77.1
2021-06-24 11:55:00 81.7 20.3 37.0 81.7 81.7 2.8 5.5 3.5 159.9 61.8 0.00 0.3793824 77.4
2021-06-24 12:00:00 82.1 19.1 35.9 82.1 82.1 4.4 7.4 4.2 29.1 69.7 0.00 0.3308672 77.7
2021-06-24 12:05:00 82.7 19.1 36.5 82.7 82.7 3.0 5.1 3.0 201.7 74.2 0.00 0.3735498 78.1
2021-06-24 12:10:00 83.5 19.2 37.1 83.5 83.5 3.3 6.3 4.6 217.5 138.5 0.00 0.2586534 78.5
2021-06-24 12:15:00 81.5 18.4 34.5 81.5 81.5 8.3 11.3 5.1 113.7 329.0 0.00 0.1559459 78.8
2021-06-24 12:20:00 81.4 18.1 33.9 81.4 81.4 9.4 9.4 6.3 190.5 121.5 0.00 0.1612261 79.2
2021-06-24 12:25:00 82.3 16.3 32.0 82.3 82.3 5.8 14.0 7.9 163.1 202.7 0.00 0.2752187 79.6
2021-06-24 12:30:00 82.0 17.1 33.1 82.0 82.0 5.6 8.8 7.2 229.3 205.8 0.00 0.2641572 79.9
2021-06-24 12:35:00 83.8 16.8 34.1 83.8 83.8 5.6 8.5 5.4 272.7 261.0 0.00 0.3455139 80.2
2021-06-24 12:40:00 83.3 16.0 32.5 83.3 83.3 12.8 13.3 7.9 200.9 197.5 0.00 0.2544831 80.5
2021-06-24 12:45:00 84.5 15.8 33.1 84.5 84.5 6.2 12.2 7.1 238.8 224.2 0.00 0.2855337 80.8
2021-06-24 12:50:00 82.3 18.4 35.1 82.3 82.3 8.5 13.3 6.8 298.6 264.7 0.00 0.0829145 81.0
2021-06-24 12:55:00 81.2 18.4 34.3 81.2 81.2 9.2 15.6 6.3 279.1 255.4 0.00 0.0748493 81.2
2021-06-24 13:00:00 81.0 18.4 34.1 81.0 81.0 4.7 10.6 7.1 248.0 274.1 0.00 0.1686615 81.4
2021-06-24 13:05:00 82.9 16.9 33.4 82.9 82.9 9.9 13.3 6.5 196.9 208.4 0.00 0.2878380 81.6
2021-06-24 13:10:00 84.1 16.3 33.5 84.1 84.1 11.5 13.5 8.6 285.1 217.3 0.00 0.3256812 81.8
2021-06-24 13:15:00 83.0 17.1 33.9 83.0 83.0 5.1 16.0 10.7 162.7 272.5 0.00 0.2792754 81.9
2021-06-24 13:20:00 83.1 16.5 33.0 83.1 83.1 10.6 17.4 10.3 222.8 262.9 0.00 0.1908488 82.0
2021-06-24 13:25:00 84.8 16.8 34.9 84.8 84.8 5.8 17.2 9.6 305.5 225.0 0.00 0.3628501 82.1
2021-06-24 13:30:00 85.0 17.4 35.9 85.0 85.0 8.1 13.5 9.0 305.3 263.8 0.00 0.3153361 82.2
2021-06-24 13:35:00 84.6 16.6 34.4 84.6 84.6 10.1 14.7 8.4 231.8 231.3 0.00 0.3460495 82.3
2021-06-24 13:40:00 85.1 15.8 33.5 85.1 85.1 9.0 13.5 7.6 205.7 217.7 0.00 0.2646852 82.4
2021-06-24 13:45:00 81.7 18.6 34.8 81.7 81.7 4.6 18.9 9.8 276.7 263.0 0.00 0.1576087 82.5
2021-06-24 13:50:00 82.1 18.6 35.1 82.1 82.1 4.6 13.3 8.3 252.6 281.1 0.00 0.2222472 82.7
2021-06-24 13:55:00 83.9 16.0 32.9 83.9 83.9 6.5 16.9 7.1 209.2 251.8 0.00 0.3430635 82.9
2021-06-24 14:00:00 85.2 15.2 32.6 85.2 85.2 11.7 17.4 9.8 227.6 246.0 0.00 0.3332019 83.0
2021-06-24 14:05:00 84.3 15.9 33.2 84.3 84.3 11.5 16.4 9.4 193.0 204.3 0.00 0.3327153 83.2
2021-06-24 14:10:00 85.1 17.0 35.5 85.1 85.1 7.4 13.3 7.2 281.6 243.0 0.00 0.2784718 83.4
2021-06-24 14:15:00 83.5 16.8 33.8 83.5 83.5 5.1 15.5 6.8 211.7 231.8 0.00 0.1941939 83.5
2021-06-24 14:20:00 84.5 16.8 34.6 84.5 84.5 6.2 11.5 6.8 253.5 258.3 0.00 0.2779988 83.7
2021-06-24 14:25:00 84.5 16.1 33.5 84.5 84.5 10.6 13.5 8.7 157.2 231.1 0.00 0.3281165 83.9
2021-06-24 14:30:00 83.8 17.5 35.2 83.8 83.8 6.9 11.3 7.2 256.4 224.1 0.00 0.2247067 84.2
2021-06-24 14:35:00 83.2 16.9 33.7 83.2 83.2 7.8 15.6 9.5 157.7 203.1 0.00 0.2580508 84.3
2021-06-24 14:40:00 82.0 18.7 35.2 82.0 82.0 6.9 10.8 6.9 279.8 245.5 0.00 0.0725060 84.5
2021-06-24 14:45:00 83.1 18.0 35.2 83.1 83.1 5.5 13.3 7.9 216.2 269.8 0.00 0.2712205 84.7
2021-06-24 14:50:00 83.2 17.8 35.0 83.2 83.2 8.1 11.2 7.1 262.8 256.0 0.00 0.2156026 84.9
2021-06-24 14:55:00 82.1 18.5 35.0 82.1 82.1 4.6 13.3 6.8 260.9 232.0 0.00 0.1405058 85.1
2021-06-24 15:00:00 82.1 19.2 36.1 82.1 82.1 7.2 11.2 7.4 287.7 294.8 0.00 0.2623728 85.2
2021-06-24 15:05:00 82.4 20.1 37.4 82.4 82.4 5.6 13.5 8.5 264.2 291.4 0.00 0.2394911 85.3
2021-06-24 15:10:00 83.8 18.4 36.4 83.8 83.8 7.8 9.0 6.3 334.9 294.3 0.00 0.3186404 85.4
2021-06-24 15:15:00 82.9 18.6 35.8 82.9 82.9 5.8 13.3 7.7 299.9 274.6 0.00 0.1967779 85.6
2021-06-24 15:20:00 82.8 20.2 37.8 82.8 82.8 2.6 9.7 4.9 234.2 244.6 0.00 0.1353872 85.7
2021-06-24 15:25:00 82.3 19.0 35.9 82.3 82.3 7.1 7.4 4.5 323.5 282.9 0.00 0.1490717 85.8
2021-06-24 15:30:00 80.0 21.4 37.0 80.0 80.0 9.2 11.2 7.4 318.7 297.0 0.00 0.0823399 85.9
2021-06-24 15:35:00 79.6 21.5 36.9 79.6 79.6 7.1 9.6 6.9 282.2 311.3 0.00 0.0807168 86.0
2021-06-24 15:40:00 79.2 22.1 37.2 79.2 79.2 5.1 13.9 8.1 279.6 297.5 0.00 0.0769284 86.1
2021-06-24 15:45:00 80.3 22.5 38.6 80.3 80.3 12.6 14.2 7.9 299.8 306.0 0.00 0.2117037 86.1
2021-06-24 15:50:00 78.4 23.6 38.2 78.4 78.4 8.0 14.7 9.9 261.5 319.0 0.00 0.1165663 86.2
2021-06-24 15:55:00 75.8 25.5 38.0 75.8 75.8 18.1 19.9 14.3 320.5 326.8 0.00 0.0845055 86.2
2021-06-24 16:00:00 75.0 26.8 38.6 75.0 75.0 11.9 19.6 12.7 310.8 329.0 0.00 0.0859414 86.2
2021-06-24 16:05:00 74.8 28.9 40.3 74.8 74.8 7.4 17.1 11.4 333.8 316.0 0.00 0.1364658 86.1
2021-06-24 16:10:00 74.7 29.8 41.0 74.7 74.7 5.3 14.4 10.3 19.0 317.3 0.00 0.1335486 86.1
2021-06-24 16:15:00 75.7 28.7 40.9 75.7 75.7 6.7 12.1 8.1 326.7 336.6 0.00 0.1888766 86.1
2021-06-24 16:20:00 77.6 26.6 40.6 77.6 77.6 4.7 16.0 6.8 295.2 335.4 0.00 0.2409380 86.0
2021-06-24 16:25:00 78.5 26.3 41.1 78.5 78.5 10.5 17.1 9.9 321.8 329.4 0.00 0.2360673 85.9
2021-06-24 16:30:00 79.0 25.2 40.4 79.0 79.0 5.6 12.8 7.2 304.4 291.1 0.00 0.2051511 85.9
2021-06-24 16:35:00 78.5 25.8 40.6 78.5 78.5 7.6 11.5 7.1 303.4 294.1 0.00 0.1436269 85.8
2021-06-24 16:40:00 77.5 27.2 41.1 77.5 77.5 5.6 10.6 6.2 347.8 277.6 0.00 0.0859460 85.8
2021-06-24 16:45:00 76.9 27.1 40.5 76.9 76.9 4.7 11.7 6.6 296.9 307.7 0.00 0.0837291 85.7
2021-06-24 16:50:00 77.2 25.5 39.2 77.2 77.2 5.5 8.0 4.8 291.2 321.9 0.00 0.0505094 85.7
2021-06-24 16:55:00 77.5 21.4 35.0 77.5 77.5 4.2 13.7 6.5 285.0 289.8 0.00 0.0579643 85.7
2021-06-24 17:00:00 77.4 26.7 40.5 77.4 77.4 4.0 9.7 6.4 290.8 303.3 0.00 0.0564080 85.7
2021-06-24 17:05:00 77.0 28.0 41.4 77.0 77.0 6.2 7.1 4.6 284.8 288.8 0.00 0.0617286 85.7
2021-06-24 17:10:00 77.6 25.7 39.8 77.6 77.6 6.2 7.1 4.4 189.9 271.5 0.00 0.0900008 85.6
2021-06-24 17:15:00 77.8 26.0 40.1 77.8 77.8 5.3 10.5 5.5 234.5 248.1 0.00 0.0732839 85.6
2021-06-24 17:20:00 76.5 25.3 38.4 76.5 76.5 11.9 15.8 10.0 304.5 276.0 0.00 0.0666148 85.5
2021-06-24 17:25:00 75.1 27.4 39.2 75.1 75.1 11.9 17.8 12.0 282.4 279.2 0.00 0.0619658 85.4
2021-06-24 17:30:00 74.4 28.2 39.4 74.4 74.4 9.7 16.2 11.0 257.7 280.8 0.00 0.0551845 85.3

Data is courtesy of the NM Climate Center. DO NOT USE IN LEGAL PROCEEDINGS.